French Lick, IN

6:43 AM EST on March 05, 2015 (GMT -0500)
Huntingburg | Change Station
CLOSE
Current Station
Airport
Location: Huntingburg,
Elevation: 528 ft
Nearby Weather Stations

Elev 528 ft 38.25 °N, 86.95 °W | Updated 8 minutes ago

Overcast
Overcast
18 °F
Feels Like 4 °F
N
13
Wind Variable Wind from NNW
Gusts 18 mph

Today
High -- | Low -- °F
--% Chance of Precip.
Yesterday
High -- | Low -- °F
Precip. -- in
7:13 AM 6:43 PM
Full, 100% visible
Pressure 30.34 in
Visibility 10.0 miles
Clouds Clear
Windchill 4 °F
Dew Point 7 °F
Humidity 63%
Rainfall 0.00 in
Snow Depth Not available.
UV 0 out of 12
Pollen .80 out of 12
Air Quality Not available.
Flu Activity Not available.
METAR KHNB 051135Z AUTO 34011G16KT 10SM CLR M08/M14 A3034 RMK AO1

More Conditions Fewer Conditions

Pressure 30.34 in
Visibility 10.0 miles
Clouds Clear
Windchill 4 °F
Dew Point 7 °F
Humidity 63%
Rainfall 0.00 in
Snow Depth Not available.
UV 0 out of 12
Pollen .80 out of 12
Air Quality Not available.
Flu Activity Not available.
METAR KHNB 051135Z AUTO 34011G16KT 10SM CLR M08/M14 A3034 RMK AO1

More Conditions Fewer Conditions

10-Day Weather Forecast

Almanac

Astronomy

Mar. 05, 2015 Rise Set
Actual Time
Civil Twilight
Nautical Twilight
Astronomical Twilight
Moon
Length of Visible Light
Length of Day
Tomorrow will be .
, % of the Moon is Illuminated

Today's Extremes

State Highs State Lows

Community

WunderPhotos

Upload Photos

1,802,716 photos uploaded!

WunderBlogs® & News

Nearby

Air Quality

  Air Quality AQ Index Pollutant
Not available.

Snow Depth

Station Depth Elevation

Earthquake Activity

City Distance Mag. Time & Date
Minimum magnitude displayed is 2.5.

Coastal Water Temperatures

Place Temperature

Nearby Weather Stations

Winter Storm Warning
Statement as of 2:34 AM CST on March 05, 2015

... Winter Storm Warning remains in effect until 1 PM EST /noon
CST/ this afternoon...

A Winter Storm Warning remains in effect until 1 PM EST /noon
CST/ this afternoon.

* Timing: light to moderate snow will continue to daybreak.
Conditions will improve through the morning hours.

* Accumulations: an additional 1 to 2 inches is possible through
daybreak... making for event totals of 6 to 10 inches.

* Main impact: snow covered roads and dangerous travel conditions.

* Other impacts: north winds gusting up to 20 mph. This combined
with the weight of the snow could result in scattered power
outages and downed tree limbs.

Precautionary/preparedness actions...

Travel will be treacherous with some roads nearly impassable.
Have an emergency kit of blankets... food... water and flashlights
if you must travel. Power outages are likely.